createdAt,value
2018-05-11T00:01:36.178Z,15.72
2018-05-11T00:04:04.524Z,15.72
2018-05-11T00:06:32.847Z,15.64
2018-05-11T00:09:01.197Z,15.60
2018-05-11T00:11:29.525Z,15.53
2018-05-11T00:13:57.874Z,15.57
2018-05-11T00:16:26.205Z,15.52
2018-05-11T00:18:54.569Z,15.45
2018-05-11T00:21:22.897Z,15.52
2018-05-11T00:23:51.249Z,15.58
2018-05-11T00:26:19.584Z,15.61
2018-05-11T00:28:47.934Z,15.52
2018-05-11T00:31:16.267Z,15.61
2018-05-11T00:33:44.633Z,15.59
2018-05-11T00:36:12.968Z,15.60
2018-05-11T00:38:41.329Z,15.51
2018-05-11T00:41:09.658Z,15.44
2018-05-11T00:43:38.010Z,15.42
2018-05-11T00:46:06.357Z,15.40
2018-05-11T00:48:34.708Z,15.38
2018-05-11T00:51:03.044Z,15.29
2018-05-11T00:53:31.396Z,15.31
2018-05-11T00:55:59.732Z,15.28
2018-05-11T00:58:28.085Z,15.36
2018-05-11T01:00:56.417Z,15.31
2018-05-11T01:03:24.770Z,15.32
2018-05-11T01:05:53.101Z,15.31
2018-05-11T01:08:21.454Z,15.31
2018-05-11T01:10:49.785Z,15.37
2018-05-11T01:13:18.145Z,15.40
2018-05-11T01:15:46.481Z,15.39
2018-05-11T01:18:14.833Z,15.43
2018-05-11T01:20:43.164Z,15.42
2018-05-11T01:23:11.517Z,15.46
2018-05-11T01:25:39.855Z,15.45
2018-05-11T01:28:08.353Z,15.46
2018-05-11T01:30:36.686Z,15.49
2018-05-11T01:33:05.041Z,15.47
2018-05-11T01:35:33.381Z,15.42
2018-05-11T01:38:01.738Z,15.37
2018-05-11T01:40:30.097Z,15.31
2018-05-11T01:42:58.424Z,15.31
2018-05-11T01:45:26.785Z,15.32
2018-05-11T01:47:55.126Z,15.35
2018-05-11T01:50:23.480Z,15.35
2018-05-11T01:52:51.817Z,15.32
2018-05-11T01:55:20.173Z,15.33
2018-05-11T01:57:48.500Z,15.33
2018-05-11T02:00:16.864Z,15.39
2018-05-11T02:02:45.197Z,15.39
2018-05-11T02:05:13.562Z,15.41
2018-05-11T02:07:41.903Z,15.47
2018-05-11T02:10:10.265Z,15.52
2018-05-11T02:12:38.601Z,15.54
2018-05-11T02:15:06.953Z,15.62
2018-05-11T02:17:35.288Z,15.65
2018-05-11T02:20:03.649Z,15.58
2018-05-11T02:22:31.981Z,15.61
2018-05-11T02:25:00.332Z,15.60
2018-05-11T02:27:28.664Z,15.62
2018-05-11T02:29:57.020Z,15.65
2018-05-11T02:32:25.363Z,15.68
2018-05-11T02:34:53.723Z,15.65
2018-05-11T02:37:22.060Z,15.70
2018-05-11T02:39:50.416Z,15.73
2018-05-11T02:42:18.756Z,15.71
2018-05-11T02:44:47.109Z,15.61
2018-05-11T02:47:15.445Z,15.57
2018-05-11T02:49:43.805Z,15.52
2018-05-11T02:52:12.136Z,15.49
2018-05-11T02:54:40.500Z,15.52
2018-05-11T02:57:08.842Z,15.54
2018-05-11T02:59:37.196Z,15.52
2018-05-11T03:02:05.532Z,15.50
2018-05-11T03:04:33.889Z,15.55
2018-05-11T03:07:02.224Z,15.49
2018-05-11T03:09:30.584Z,15.50
2018-05-11T03:11:58.927Z,15.56
2018-05-11T03:14:27.273Z,15.52
2018-05-11T03:16:55.609Z,15.52
2018-05-11T03:19:23.967Z,15.53
2018-05-11T03:21:52.297Z,15.54
2018-05-11T03:24:20.656Z,15.52
2018-05-11T03:26:48.996Z,15.54
2018-05-11T03:29:17.352Z,15.55
2018-05-11T03:31:45.689Z,15.57
2018-05-11T03:34:14.053Z,15.43
2018-05-11T03:36:42.395Z,15.44
2018-05-11T03:39:10.758Z,15.47
2018-05-11T03:41:39.115Z,15.39
2018-05-11T03:44:07.449Z,15.29
2018-05-11T03:46:35.811Z,15.30
2018-05-11T03:49:04.143Z,15.31
2018-05-11T03:51:32.497Z,15.38
2018-05-11T03:54:00.828Z,15.37
2018-05-11T03:56:29.186Z,15.42
2018-05-11T03:58:57.530Z,15.40
2018-05-11T04:01:37.868Z,15.41
2018-05-11T04:04:18.009Z,15.36
2018-05-11T04:09:49.608Z,15.37
2018-05-11T04:12:17.941Z,15.39
2018-05-11T04:14:46.292Z,15.46
2018-05-11T04:17:14.620Z,15.43
2018-05-11T04:19:42.974Z,15.49
2018-05-11T04:22:11.300Z,15.44
2018-05-11T04:24:39.660Z,15.44
2018-05-11T04:27:07.993Z,15.38
2018-05-11T04:29:36.335Z,15.31
2018-05-11T04:32:04.685Z,15.21
2018-05-11T04:34:33.018Z,15.20
2018-05-11T04:37:01.369Z,15.16
2018-05-11T04:39:29.709Z,15.26
2018-05-11T04:41:58.065Z,15.18
2018-05-11T04:44:26.397Z,15.02
2018-05-11T04:46:54.744Z,14.98
2018-05-11T04:49:23.076Z,14.90
2018-05-11T04:51:51.429Z,14.73
2018-05-11T04:54:19.761Z,14.77
2018-05-11T04:56:48.120Z,14.85
2018-05-11T04:59:16.453Z,14.91
2018-05-11T05:01:44.806Z,14.90
2018-05-11T05:04:13.137Z,14.98
2018-05-11T05:06:41.489Z,14.98
2018-05-11T05:09:09.824Z,15.01
2018-05-11T05:11:38.177Z,15.04
2018-05-11T05:14:06.504Z,15.06
2018-05-11T05:16:34.870Z,15.14
2018-05-11T05:19:03.248Z,15.04
2018-05-11T05:21:31.556Z,14.95
2018-05-11T05:23:59.890Z,14.94
2018-05-11T05:26:28.246Z,14.76
2018-05-11T05:28:56.585Z,14.70
2018-05-11T05:31:24.945Z,14.66
2018-05-11T05:33:53.284Z,14.49
2018-05-11T05:36:21.632Z,14.42
2018-05-11T05:38:50.017Z,14.37
2018-05-11T05:41:18.328Z,14.37
2018-05-11T05:43:46.662Z,14.38
2018-05-11T05:46:15.007Z,14.41
2018-05-11T05:48:43.340Z,14.36
2018-05-11T05:51:11.696Z,14.42
2018-05-11T05:53:40.069Z,14.45
2018-05-11T05:56:08.434Z,14.42
2018-05-11T05:58:36.789Z,14.52
2018-05-11T06:01:05.120Z,14.61
2018-05-11T06:03:33.452Z,14.66
2018-05-11T06:06:01.826Z,14.62
2018-05-11T06:08:30.144Z,14.49
2018-05-11T06:10:58.534Z,14.55
2018-05-11T06:13:26.853Z,14.58
2018-05-11T06:15:55.225Z,14.61
2018-05-11T06:18:23.552Z,14.75
2018-05-11T06:20:51.913Z,14.88
2018-05-11T06:23:20.252Z,14.94
2018-05-11T06:25:48.621Z,14.95
2018-05-11T06:28:16.957Z,14.94
2018-05-11T06:30:45.296Z,14.94
2018-05-11T06:33:13.656Z,14.92
2018-05-11T06:35:41.988Z,14.98
2018-05-11T06:38:10.339Z,15.04
2018-05-11T06:40:38.702Z,14.98
2018-05-11T06:43:07.041Z,15.01
2018-05-11T06:45:35.380Z,15.12
2018-05-11T06:48:03.728Z,15.21
2018-05-11T06:50:32.074Z,15.37
2018-05-11T06:53:00.429Z,15.35
2018-05-11T06:55:28.764Z,15.39
2018-05-11T06:57:57.116Z,15.46
2018-05-11T07:00:25.440Z,15.55
2018-05-11T07:02:53.791Z,15.64
2018-05-11T07:05:22.120Z,15.76
2018-05-11T07:07:50.524Z,15.61
2018-05-11T07:10:18.809Z,15.45
2018-05-11T07:12:47.165Z,15.51
2018-05-11T07:15:15.497Z,15.66
2018-05-11T07:17:43.857Z,15.75
2018-05-11T07:20:12.185Z,15.80
2018-05-11T07:22:40.545Z,15.85
2018-05-11T07:25:08.880Z,15.86
2018-05-11T07:27:37.233Z,15.96
2018-05-11T07:30:05.569Z,15.90
2018-05-11T07:32:33.930Z,15.92
2018-05-11T07:35:02.404Z,15.99
2018-05-11T07:37:30.648Z,15.96
2018-05-11T07:39:58.981Z,15.94
2018-05-11T07:42:27.352Z,16.00
2018-05-11T07:44:55.686Z,15.99
2018-05-11T07:47:24.040Z,16.04
2018-05-11T07:49:52.369Z,16.14
2018-05-11T07:52:20.715Z,16.14
2018-05-11T07:54:49.052Z,16.27
2018-05-11T07:57:17.400Z,16.23
2018-05-11T07:59:45.733Z,16.26
2018-05-11T08:02:14.117Z,16.50
2018-05-11T08:04:42.449Z,16.56
2018-05-11T08:07:10.806Z,16.71
2018-05-11T08:09:39.132Z,16.71
2018-05-11T08:12:07.489Z,16.80
2018-05-11T08:14:35.918Z,16.80
2018-05-11T08:17:04.165Z,16.87
2018-05-11T08:19:32.501Z,16.85
2018-05-11T08:22:00.858Z,16.68
2018-05-11T08:24:29.198Z,16.70
2018-05-11T08:26:57.602Z,16.73
2018-05-11T08:29:26.042Z,16.85
2018-05-11T08:31:54.380Z,17.05
2018-05-11T08:34:22.760Z,16.95
2018-05-11T08:36:51.088Z,17.02
2018-05-11T08:39:19.503Z,17.28
2018-05-11T08:41:47.836Z,17.37
2018-05-11T08:44:16.193Z,17.47
2018-05-11T08:46:44.559Z,17.56
2018-05-11T08:49:12.975Z,17.78
2018-05-11T08:51:41.350Z,17.98
2018-05-11T08:54:09.709Z,18.15
2018-05-11T08:56:38.065Z,18.32
2018-05-11T08:59:06.423Z,18.25
2018-05-11T09:01:34.764Z,18.37
2018-05-11T09:04:03.157Z,18.40
2018-05-11T09:06:31.510Z,18.44
2018-05-11T09:08:59.869Z,18.34
2018-05-11T09:11:28.201Z,18.12
2018-05-11T09:15:30.693Z,18.00
2018-05-11T09:17:59.048Z,18.18
2018-05-11T09:20:27.393Z,18.25
2018-05-11T09:22:55.746Z,18.20
2018-05-11T09:25:24.093Z,18.25
2018-05-11T09:27:52.836Z,18.12
2018-05-11T09:31:48.723Z,17.97
2018-05-11T09:34:17.064Z,18.18
2018-05-11T09:36:45.397Z,18.30
2018-05-11T09:39:13.753Z,18.53
2018-05-11T09:41:42.093Z,18.97
2018-05-11T09:44:10.448Z,19.22
2018-05-11T09:46:38.776Z,19.40
2018-05-11T09:49:07.137Z,19.42
2018-05-11T09:51:35.476Z,19.51
2018-05-11T09:54:03.826Z,19.28
2018-05-11T09:56:32.156Z,19.46
2018-05-11T09:59:00.521Z,19.67
2018-05-11T10:01:28.873Z,19.63
2018-05-11T10:03:57.289Z,19.48
2018-05-11T10:06:25.637Z,19.50
2018-05-11T10:08:53.989Z,19.75
2018-05-11T10:11:22.335Z,19.65
2018-05-11T10:13:50.696Z,19.72
2018-05-11T10:16:19.037Z,19.66
2018-05-11T10:18:47.426Z,19.44
2018-05-11T10:21:15.964Z,19.48
2018-05-11T10:23:44.392Z,19.63
2018-05-11T10:26:12.732Z,19.84
2018-05-11T10:28:41.158Z,19.89
2018-05-11T10:31:09.431Z,20.00
2018-05-11T10:33:37.787Z,19.77
2018-05-11T10:36:06.129Z,19.74
2018-05-11T10:38:34.489Z,19.88
2018-05-11T10:41:02.829Z,20.03
2018-05-11T10:43:31.190Z,19.97
2018-05-11T10:45:59.528Z,19.88
2018-05-11T10:48:27.893Z,19.91
2018-05-11T10:50:56.225Z,20.15
2018-05-11T10:53:24.586Z,20.42
2018-05-11T10:55:52.932Z,20.55
2018-05-11T10:58:21.306Z,20.38
2018-05-11T11:00:49.657Z,20.47
2018-05-11T11:03:18.371Z,20.48
2018-05-11T11:05:46.843Z,20.62
2018-05-11T11:08:16.423Z,20.84
2018-05-11T11:10:47.330Z,21.00
2018-05-11T11:13:15.711Z,21.07
2018-05-11T11:15:44.138Z,21.07
2018-05-11T11:18:12.530Z,21.08
2018-05-11T11:20:40.890Z,21.06
2018-05-11T11:23:09.241Z,21.12
2018-05-11T11:25:37.606Z,21.06
2018-05-11T11:28:05.942Z,21.14
2018-05-11T11:30:34.298Z,21.03
2018-05-11T11:33:02.640Z,20.91
2018-05-11T11:35:31.000Z,20.75
2018-05-11T11:37:59.337Z,20.67
2018-05-11T11:40:48.105Z,21.79
2018-05-11T11:43:16.455Z,21.18
2018-05-11T11:45:44.949Z,21.00
2018-05-11T11:48:13.285Z,21.13
2018-05-11T11:50:41.653Z,21.27
2018-05-11T11:53:09.997Z,21.09
2018-05-11T11:55:38.349Z,20.94
2018-05-11T11:58:06.688Z,20.74
2018-05-11T12:00:35.053Z,20.69
2018-05-11T12:03:03.389Z,20.46
2018-05-11T12:05:31.749Z,20.39
2018-05-11T12:08:00.095Z,20.39
2018-05-11T12:10:28.466Z,20.34
2018-05-11T12:12:56.797Z,20.38
2018-05-11T12:15:25.148Z,20.47
2018-05-11T12:17:53.485Z,20.42
2018-05-11T12:20:21.841Z,20.38
2018-05-11T12:22:50.176Z,20.31
2018-05-11T12:25:18.556Z,20.23
2018-05-11T12:27:46.890Z,20.31
2018-05-11T12:30:15.249Z,20.45
2018-05-11T12:32:43.579Z,20.50
2018-05-11T12:35:11.936Z,20.51
2018-05-11T12:37:40.272Z,20.37
2018-05-11T12:40:08.628Z,20.40
2018-05-11T12:42:36.978Z,20.36
2018-05-11T12:45:05.806Z,20.43
2018-05-11T12:47:34.161Z,20.47
2018-05-11T12:50:02.525Z,20.62
2018-05-11T12:52:30.864Z,20.80
2018-05-11T12:54:59.225Z,20.63
2018-05-11T12:57:27.560Z,20.59
2018-05-11T12:59:55.921Z,20.48
2018-05-11T13:02:24.252Z,20.47
2018-05-11T13:04:53.217Z,20.49
2018-05-11T13:07:21.563Z,20.45
2018-05-11T13:09:49.916Z,20.46
2018-05-11T13:12:18.258Z,20.49
2018-05-11T13:14:46.619Z,20.45
2018-05-11T13:17:14.957Z,20.43
2018-05-11T13:19:43.324Z,20.53
2018-05-11T13:22:11.721Z,20.51
2018-05-11T13:24:40.413Z,20.55
2018-05-11T13:27:08.861Z,20.52
2018-05-11T13:29:37.187Z,20.57
2018-05-11T13:32:06.569Z,20.52
2018-05-11T13:34:34.881Z,20.51
2018-05-11T13:37:03.235Z,20.49
2018-05-11T13:39:31.605Z,20.48
2018-05-11T13:42:00.058Z,20.56
2018-05-11T13:44:28.280Z,20.56
2018-05-11T13:46:56.636Z,20.50
2018-05-11T13:49:24.972Z,20.53
2018-05-11T13:51:53.329Z,20.69
2018-05-11T13:54:21.660Z,20.89
2018-05-11T13:56:50.012Z,20.98
2018-05-11T13:59:18.336Z,21.00
2018-05-11T14:01:46.693Z,20.83
2018-05-11T14:04:15.064Z,20.76
2018-05-11T14:06:43.419Z,20.65
2018-05-11T14:09:11.757Z,20.55
2018-05-11T14:11:40.117Z,20.84
2018-05-11T14:14:08.452Z,20.92
2018-05-11T14:16:36.903Z,20.88
2018-05-11T14:19:05.228Z,20.80
2018-05-11T14:21:33.580Z,20.98
2018-05-11T14:24:02.789Z,21.02
2018-05-11T14:26:31.132Z,21.17
2018-05-11T14:28:59.460Z,21.08
2018-05-11T14:31:27.811Z,20.95
2018-05-11T14:33:56.137Z,20.84
2018-05-11T14:36:24.490Z,20.77
2018-05-11T14:38:52.811Z,20.86
2018-05-11T14:41:21.160Z,20.78
2018-05-11T14:43:49.586Z,20.81
2018-05-11T14:46:17.936Z,20.97
2018-05-11T14:48:46.268Z,21.02
2018-05-11T14:51:14.678Z,21.28
2018-05-11T14:53:43.077Z,21.47
2018-05-11T14:56:11.447Z,21.40
2018-05-11T14:58:39.990Z,21.32
2018-05-11T15:01:08.362Z,21.25
2018-05-11T15:03:37.145Z,21.46
2018-05-11T15:06:05.611Z,21.43
2018-05-11T15:08:33.936Z,21.42
2018-05-11T15:11:02.372Z,21.63
2018-05-11T15:13:30.852Z,21.43
2018-05-11T15:15:59.200Z,21.37
2018-05-11T15:18:27.527Z,21.44
2018-05-11T15:20:58.041Z,21.47
2018-05-11T15:23:26.365Z,21.44
2018-05-11T15:25:54.725Z,21.55
2018-05-11T15:28:23.074Z,21.39
2018-05-11T15:30:51.400Z,21.26
2018-05-11T15:33:19.755Z,21.17
2018-05-11T15:35:48.082Z,21.01
2018-05-11T15:38:16.433Z,20.99
2018-05-11T15:40:44.756Z,20.91
2018-05-11T15:43:13.105Z,20.89
2018-05-11T15:45:41.438Z,20.95
2018-05-11T15:48:09.780Z,21.09
2018-05-11T15:50:38.113Z,21.18
2018-05-11T15:53:06.475Z,21.18
2018-05-11T15:55:34.816Z,21.18
2018-05-11T15:58:03.152Z,21.30
2018-05-11T16:00:31.484Z,21.03
2018-05-11T16:02:59.840Z,21.02
2018-05-11T16:05:28.167Z,21.18
2018-05-11T16:07:56.512Z,21.00
2018-05-11T16:10:24.845Z,21.04
2018-05-11T16:12:53.288Z,21.11
2018-05-11T16:15:21.526Z,21.21
2018-05-11T16:17:49.876Z,21.29
2018-05-11T16:20:18.202Z,21.35
2018-05-11T16:22:46.768Z,21.42
2018-05-11T16:25:15.101Z,21.41
2018-05-11T16:27:43.447Z,21.37
2018-05-11T16:30:11.789Z,21.29
2018-05-11T16:32:40.140Z,21.32
2018-05-11T16:35:08.466Z,21.31
2018-05-11T16:37:36.813Z,21.35
2018-05-11T16:40:05.141Z,21.28
2018-05-11T16:42:33.489Z,21.22
2018-05-11T16:45:01.824Z,21.17
2018-05-11T16:47:30.164Z,21.24
2018-05-11T16:49:58.488Z,21.28
2018-05-11T16:52:26.828Z,21.13
2018-05-11T16:54:55.161Z,21.09
2018-05-11T16:57:23.503Z,21.00
2018-05-11T16:59:51.828Z,20.99
2018-05-11T17:02:22.101Z,21.05
2018-05-11T17:04:50.431Z,21.02
2018-05-11T17:07:18.858Z,21.16
2018-05-11T17:09:48.093Z,21.22
2018-05-11T17:12:16.467Z,21.32
2018-05-11T17:14:44.822Z,21.31
2018-05-11T17:17:13.217Z,21.41
2018-05-11T17:19:41.586Z,21.49
2018-05-11T17:22:09.934Z,21.52
2018-05-11T17:24:38.322Z,21.45
2018-05-11T17:27:06.686Z,21.49
2018-05-11T17:29:35.052Z,21.41
2018-05-11T17:32:03.524Z,21.41
2018-05-11T17:34:31.881Z,22.51
2018-05-11T17:37:00.208Z,22.08
2018-05-11T17:39:28.560Z,21.90
2018-05-11T17:41:56.901Z,21.63
2018-05-11T17:44:25.261Z,21.55
2018-05-11T17:46:53.598Z,21.43
2018-05-11T17:49:21.956Z,21.36
2018-05-11T17:51:50.276Z,21.33
2018-05-11T17:54:18.633Z,21.42
2018-05-11T17:56:46.978Z,21.45
2018-05-11T17:59:15.328Z,21.36
2018-05-11T18:01:43.661Z,21.24
2018-05-11T18:04:12.032Z,21.32
2018-05-11T18:06:40.438Z,21.21
2018-05-11T18:09:08.701Z,21.08
2018-05-11T18:11:37.031Z,20.91
2018-05-11T18:14:05.385Z,20.75
2018-05-11T18:16:33.713Z,20.76
2018-05-11T18:19:02.156Z,20.80
2018-05-11T18:21:30.386Z,20.82
2018-05-11T18:23:58.734Z,20.76
2018-05-11T18:26:27.064Z,20.64
2018-05-11T18:28:55.413Z,20.53
2018-05-11T18:31:23.731Z,20.48
2018-05-11T18:33:52.081Z,20.46
2018-05-11T18:36:20.404Z,20.42
2018-05-11T18:38:50.364Z,20.39
2018-05-11T18:41:18.685Z,20.35
2018-05-11T18:43:47.028Z,20.24
2018-05-11T18:46:15.361Z,20.24
2018-05-11T18:48:43.709Z,20.22
2018-05-11T18:51:12.037Z,20.21
2018-05-11T18:53:40.747Z,20.09
2018-05-11T18:56:08.763Z,20.13
2018-05-11T18:58:37.103Z,20.10
2018-05-11T19:01:05.460Z,20.08
2018-05-11T19:03:33.787Z,19.99
2018-05-11T19:06:02.125Z,19.98
2018-05-11T19:08:30.464Z,19.97
2018-05-11T19:10:58.796Z,19.97
2018-05-11T19:13:27.155Z,19.79
2018-05-11T19:15:55.477Z,19.86
2018-05-11T19:18:24.099Z,19.82
2018-05-11T19:20:52.420Z,19.64
2018-05-11T19:23:20.764Z,19.55
2018-05-11T19:25:49.096Z,19.55
2018-05-11T19:28:17.445Z,19.60
2018-05-11T19:30:45.778Z,19.64
2018-05-11T19:33:14.100Z,19.56
2018-05-11T19:35:42.445Z,19.61
2018-05-11T19:38:10.796Z,19.62
2018-05-11T19:40:39.140Z,19.64
2018-05-11T19:43:07.465Z,19.68
2018-05-11T19:45:35.812Z,19.55
2018-05-11T19:48:04.152Z,19.46
2018-05-11T19:50:32.499Z,19.38
2018-05-11T19:53:00.832Z,19.40
2018-05-11T19:55:29.179Z,19.40
2018-05-11T19:57:57.524Z,19.41
2018-05-11T20:00:25.880Z,19.30
2018-05-11T20:02:54.216Z,19.28
2018-05-11T20:05:22.564Z,19.24
2018-05-11T20:07:50.900Z,19.17
2018-05-11T20:10:19.244Z,19.07
2018-05-11T20:12:47.573Z,18.96
2018-05-11T20:15:15.917Z,19.01
2018-05-11T20:17:44.240Z,19.08
2018-05-11T20:20:12.593Z,18.95
2018-05-11T20:22:41.184Z,18.92
2018-05-11T20:25:09.906Z,18.95
2018-05-11T20:27:38.620Z,18.75
2018-05-11T20:30:07.513Z,18.60
2018-05-11T20:32:36.305Z,18.63
2018-05-11T20:35:04.987Z,18.68
2018-05-11T20:37:33.809Z,18.69
2018-05-11T20:40:02.193Z,18.71
2018-05-11T20:42:30.524Z,18.77
2018-05-11T20:44:58.875Z,18.62
2018-05-11T20:47:27.200Z,18.72
2018-05-11T20:49:55.592Z,18.91
2018-05-11T20:52:23.906Z,18.76
2018-05-11T20:54:52.252Z,19.21
2018-05-11T20:57:20.580Z,18.85
2018-05-11T20:59:48.932Z,18.64
2018-05-11T21:02:17.258Z,18.61
2018-05-11T21:04:45.642Z,18.63
2018-05-11T21:07:13.941Z,18.62
2018-05-11T21:09:42.301Z,18.72
2018-05-11T21:12:10.627Z,18.69
2018-05-11T21:14:38.991Z,18.67
2018-05-11T21:17:07.300Z,18.70
2018-05-11T21:19:35.648Z,18.68
2018-05-11T21:22:03.975Z,18.71
2018-05-11T21:24:32.326Z,18.80
2018-05-11T21:27:00.659Z,18.73
2018-05-11T21:29:29.025Z,18.73
2018-05-11T21:31:57.360Z,18.80
2018-05-11T21:34:25.693Z,18.69
2018-05-11T21:36:54.044Z,18.69
2018-05-11T21:39:22.372Z,18.66
2018-05-11T21:41:50.729Z,18.67
2018-05-11T21:44:19.052Z,18.59
2018-05-11T21:46:47.400Z,18.55
2018-05-11T21:49:15.728Z,18.59
2018-05-11T21:51:44.081Z,18.45
2018-05-11T21:54:12.415Z,18.67
2018-05-11T21:56:40.772Z,18.82
2018-05-11T21:59:09.114Z,19.00
2018-05-11T22:01:37.469Z,19.16
2018-05-11T22:04:05.818Z,20.22
2018-05-11T22:06:34.165Z,19.66
2018-05-11T22:09:02.512Z,19.47
2018-05-11T22:11:30.873Z,19.33
2018-05-11T22:13:59.204Z,19.24
2018-05-11T22:16:27.556Z,19.33
2018-05-11T22:18:55.890Z,19.20
2018-05-11T22:21:24.249Z,19.09
2018-05-11T22:23:52.589Z,19.14
2018-05-11T22:26:20.953Z,19.10
2018-05-11T22:28:49.612Z,19.13
2018-05-11T22:31:17.964Z,18.98
2018-05-11T22:33:46.293Z,18.99
2018-05-11T22:36:14.641Z,18.92
2018-05-11T22:38:42.978Z,18.85
2018-05-11T22:41:11.333Z,18.81
2018-05-11T22:43:39.672Z,18.81
2018-05-11T22:46:08.028Z,18.65
2018-05-11T22:48:36.370Z,18.64
2018-05-11T22:51:04.729Z,18.57
2018-05-11T22:53:33.073Z,18.51
2018-05-11T22:56:01.427Z,18.56
2018-05-11T22:58:29.772Z,18.58
2018-05-11T23:00:58.128Z,18.58
2018-05-11T23:03:26.460Z,18.58
2018-05-11T23:05:54.816Z,18.67
2018-05-11T23:08:23.157Z,18.62
2018-05-11T23:10:51.514Z,18.51
2018-05-11T23:13:19.850Z,18.47
2018-05-11T23:15:48.209Z,18.34
2018-05-11T23:18:16.545Z,18.35
2018-05-11T23:20:44.909Z,18.41
2018-05-11T23:23:13.249Z,18.31
2018-05-11T23:25:41.604Z,18.28
2018-05-11T23:28:09.946Z,18.35
2018-05-11T23:30:38.300Z,18.34
2018-05-11T23:33:06.637Z,18.39
2018-05-11T23:35:34.977Z,18.32
2018-05-11T23:38:03.337Z,18.14
2018-05-11T23:40:31.673Z,18.62
2018-05-11T23:43:00.033Z,18.34
2018-05-11T23:45:28.371Z,18.26
2018-05-11T23:47:56.724Z,18.23
2018-05-11T23:50:25.071Z,18.06
2018-05-11T23:52:53.434Z,18.00
2018-05-11T23:55:21.765Z,17.96
2018-05-11T23:57:50.129Z,17.96
